Time;durP1;ratioP1;P1;durP2;ratioP2;P2;SDS_P1;SDS_P2;PMS_P1;PMS_P2;Temp;Humidity;BMP_temperature;BMP_pressure;BME280_temperature;BME280_humidity;BME280_pressure;Samples;Min_cycle;Max_cycle;Signal;HPM_P1;HPM_P2
2023/05/10 00:00:46;;;;;;;1.52;1.52;;;;;;;10.47;100.00;100835.41;10320895;28;20041;-81
2023/05/10 00:05:46;;;;;;;0.85;0.85;;;;;;;10.39;100.00;100822.84;10288688;28;20459;-81
2023/05/10 00:10:47;;;;;;;0.95;0.95;;;;;;;10.34;100.00;100819.94;10307257;28;20393;-81
2023/05/10 00:15:48;;;;;;;1.52;1.52;;;;;;;10.36;100.00;100814.28;10343432;28;20102;-81
2023/05/10 00:20:48;;;;;;;0.93;0.93;;;;;;;10.37;100.00;100816.81;10320911;28;20080;-81
2023/05/10 00:25:50;;;;;;;3.70;3.53;;;;;;;10.41;100.00;100825.38;10321236;28;20125;-81
2023/05/10 00:30:51;;;;;;;3.25;3.03;;;;;;;10.34;100.00;100821.78;10337943;28;20174;-82
2023/05/10 00:35:51;;;;;;;5.35;4.90;;;;;;;10.32;100.00;100815.75;10303180;28;20125;-82
2023/05/10 00:40:58;;;;;;;0.40;0.40;;;;;;;10.36;100.00;100825.97;10337389;28;20034;-82
2023/05/10 00:46:00;;;;;;;4.07;3.70;;;;;;;10.44;100.00;100830.41;10346928;28;20038;-81
2023/05/10 00:51:03;;;;;;;0.93;0.93;;;;;;;10.62;100.00;100832.56;10336767;28;20126;-81
2023/05/10 00:56:08;;;;;;;0.43;0.43;;;;;;;10.79;100.00;100839.34;10304935;28;20066;-81
2023/05/10 01:01:09;;;;;;;0.90;0.90;;;;;;;11.04;100.00;100842.41;10319010;28;20100;-81
2023/05/10 01:06:09;;;;;;;3.45;1.60;;;;;;;11.27;100.00;100842.06;10318595;28;20145;-82
2023/05/10 01:11:10;;;;;;;12.40;3.13;;;;;;;11.36;100.00;100846.25;10302942;28;20034;-82
2023/05/10 01:16:10;;;;;;;1.13;1.13;;;;;;;11.33;100.00;100845.84;10321409;28;20034;-82
2023/05/10 01:21:18;;;;;;;2.65;2.35;;;;;;;11.37;100.00;100842.50;10342576;28;20053;-82
2023/05/10 01:26:36;;;;;;;3.42;3.22;;;;;;;11.40;100.00;100847.50;10303505;28;20092;-82
2023/05/10 01:32:01;;;;;;;3.50;3.20;;;;;;;11.50;100.00;100865.28;10334337;28;20027;-81
2023/05/10 01:37:07;;;;;;;0.40;0.40;;;;;;;11.54;100.00;100858.38;10317593;28;20065;-81
2023/05/10 01:42:10;;;;;;;8.10;5.30;;;;;;;11.61;100.00;100868.22;10302376;28;20027;-81
2023/05/10 01:47:19;;;;;;;5.45;4.50;;;;;;;11.72;100.00;100871.38;10318107;28;20417;-82
2023/05/10 01:52:33;;;;;;;0.88;0.88;;;;;;;11.76;100.00;100878.88;10285560;28;20041;-82
2023/05/10 01:57:35;;;;;;;1.17;1.17;;;;;;;11.83;100.00;100879.72;10285233;28;20042;-81
2023/05/10 02:02:37;;;;;;;1.42;1.42;;;;;;;11.89;100.00;100878.09;10300705;28;20466;-81
2023/05/10 02:07:38;;;;;;;3.42;2.30;;;;;;;11.98;100.00;100881.47;10284494;28;20375;-82
2023/05/10 02:12:42;;;;;;;4.80;2.50;;;;;;;11.98;100.00;100873.31;10315893;28;20042;-81
2023/05/10 02:17:42;;;;;;;2.00;1.98;;;;;;;12.04;100.00;100880.63;10284213;28;20481;-82
2023/05/10 02:22:43;;;;;;;3.80;3.55;;;;;;;12.04;100.00;100886.91;10305560;28;20065;-82
2023/05/10 02:27:45;;;;;;;0.90;0.88;;;;;;;12.06;100.00;100895.69;10320689;28;20043;-82
2023/05/10 02:32:46;;;;;;;3.53;3.33;;;;;;;12.05;100.00;100893.97;10316889;28;20030;-81
2023/05/10 02:37:46;;;;;;;1.33;1.33;;;;;;;12.00;100.00;100895.69;10300093;28;20037;-82
2023/05/10 02:42:48;;;;;;;0.63;0.63;;;;;;;11.98;100.00;100900.47;10288666;28;20238;-82
2023/05/10 02:47:50;;;;;;;26.50;3.72;;;;;;;11.97;100.00;100905.06;10307764;28;20125;-82
2023/05/10 02:52:54;;;;;;;2.65;2.55;;;;;;;11.95;100.00;100898.16;10307474;28;20035;-82
2023/05/10 02:57:58;;;;;;;0.63;0.63;;;;;;;11.96;100.00;100906.06;10349950;28;20038;-82
2023/05/10 03:02:58;;;;;;;0.80;0.80;;;;;;;11.99;100.00;100899.41;10293997;28;20041;-82
2023/05/10 03:08:00;;;;;;;2.20;2.10;;;;;;;11.99;100.00;100897.53;10340181;28;20054;-81
2023/05/10 03:13:29;;;;;;;1.27;1.23;;;;;;;11.99;100.00;100904.84;10341193;28;20090;-82
2023/05/10 03:18:36;;;;;;;2.97;2.88;;;;;;;11.98;100.00;100901.28;10307794;28;20026;-82
2023/05/10 03:23:45;;;;;;;3.72;3.40;;;;;;;11.99;100.00;100911.09;10306504;28;20054;-81
2023/05/10 03:28:46;;;;;;;2.63;2.38;;;;;;;11.96;100.00;100911.50;10328398;28;20505;-82
2023/05/10 03:33:50;;;;;;;1.50;1.23;;;;;;;11.96;100.00;100914.22;10310104;28;20049;-82
2023/05/10 03:38:50;;;;;;;1.33;1.30;;;;;;;11.92;100.00;100912.13;10306692;28;20038;-82
2023/05/10 03:43:51;;;;;;;2.10;2.05;;;;;;;11.93;100.00;100921.94;10322284;28;20121;-82
2023/05/10 03:48:51;;;;;;;4.22;1.75;;;;;;;11.92;100.00;100920.28;10320773;28;20030;-82
2023/05/10 03:53:52;;;;;;;2.55;2.45;;;;;;;11.86;100.00;100916.50;10338122;28;20066;-82
2023/05/10 03:58:52;;;;;;;2.25;2.15;;;;;;;11.86;100.00;100928.19;10338797;28;20124;-82
2023/05/10 04:03:53;;;;;;;3.05;2.95;;;;;;;11.78;100.00;100936.50;10304791;28;20121;-81
2023/05/10 04:08:53;;;;;;;1.35;1.35;;;;;;;11.70;100.00;100933.13;10338062;28;20066;-82
2023/05/10 04:13:54;;;;;;;3.05;2.95;;;;;;;11.64;100.00;100940.19;10337898;28;20121;-82
2023/05/10 04:18:54;;;;;;;2.15;1.98;;;;;;;11.64;100.00;100940.19;10304811;28;20066;-82
2023/05/10 04:23:54;;;;;;;2.17;2.15;;;;;;;11.63;100.00;100936.66;10319907;28;20066;-82
2023/05/10 04:28:55;;;;;;;1.35;1.35;;;;;;;11.58;100.00;100949.16;10319991;28;20030;-82
2023/05/10 04:33:55;;;;;;;34.70;2.20;;;;;;;11.52;100.00;100952.66;10325637;28;20161;-82
2023/05/10 04:38:56;;;;;;;0.95;0.95;;;;;;;11.51;100.00;100951.00;10322124;28;20065;-83
2023/05/10 04:43:59;;;;;;;1.05;1.05;;;;;;;11.54;100.00;100951.44;10336784;28;20038;-81
2023/05/10 04:49:00;;;;;;;0.40;0.40;;;;;;;11.53;100.00;100955.19;10303579;28;20358;-82
2023/05/10 04:54:00;;;;;;;0.30;0.30;;;;;;;11.52;100.00;100964.38;10340357;28;20034;-82
2023/05/10 04:59:01;;;;;;;0.73;0.73;;;;;;;11.49;100.00;100966.66;10321503;28;20090;-82
2023/05/10 05:04:01;;;;;;;4.55;4.13;;;;;;;11.51;100.00;100968.09;10318404;28;20421;-83
2023/05/10 05:09:02;;;;;;;6.53;4.47;;;;;;;11.53;100.00;100971.47;10311418;28;20385;-81
2023/05/10 05:14:02;;;;;;;6.03;5.43;;;;;;;11.58;100.00;100981.69;10318852;28;20117;-81
2023/05/10 05:19:03;;;;;;;7.30;6.60;;;;;;;11.64;100.00;100983.59;10311378;28;20405;-79
2023/05/10 05:24:04;;;;;;;9.65;8.05;;;;;;;11.68;100.00;100984.03;10341765;28;20116;-80
2023/05/10 05:29:04;;;;;;;8.70;6.85;;;;;;;11.70;100.00;100987.38;10357743;28;20042;-81
2023/05/10 05:34:05;;;;;;;13.07;7.95;;;;;;;11.77;100.00;100991.81;10359170;28;20389;-82
2023/05/10 05:39:05;;;;;;;8.57;7.75;;;;;;;11.84;100.00;100991.84;10344537;28;20034;-82
2023/05/10 05:44:06;;;;;;;11.20;8.13;;;;;;;11.85;100.00;100997.06;10367645;28;20034;-82
2023/05/10 05:49:07;;;;;;;8.98;7.30;;;;;;;11.93;100.00;100997.94;10358447;28;20100;-83
2023/05/10 05:54:07;;;;;;;9.77;8.52;;;;;;;12.03;100.00;101003.81;10341887;28;20068;-83
2023/05/10 05:59:07;;;;;;;12.23;9.57;;;;;;;12.39;100.00;101002.63;10340784;28;20034;-83
2023/05/10 06:04:08;;;;;;;9.43;8.40;;;;;;;12.94;100.00;101006.81;10341204;28;20061;-83
2023/05/10 06:09:09;;;;;;;11.48;8.88;;;;;;;13.43;100.00;100999.22;10357147;28;20060;-84
2023/05/10 06:14:10;;;;;;;13.95;8.90;;;;;;;13.90;100.00;100997.16;10343298;28;20098;-84
2023/05/10 06:19:10;;;;;;;14.43;8.77;;;;;;;13.95;100.00;101006.34;10363102;28;20425;-83
2023/05/10 06:24:13;;;;;;;10.65;9.40;;;;;;;13.77;100.00;101006.22;10316587;28;20399;-84
2023/05/10 06:29:15;;;;;;;14.20;10.45;;;;;;;13.95;100.00;101010.97;10333119;28;20041;-83
2023/05/10 06:34:15;;;;;;;9.85;8.85;;;;;;;15.06;100.00;101013.13;10333812;28;20031;-84
2023/05/10 06:39:17;;;;;;;12.10;7.93;;;;;;;15.08;100.00;101012.88;10317215;28;20038;-84
2023/05/10 06:44:17;;;;;;;10.10;8.20;;;;;;;14.58;100.00;101012.88;10333361;28;20042;-84
2023/05/10 06:49:18;;;;;;;9.48;6.55;;;;;;;14.19;100.00;101025.69;10341402;28;20506;-84
2023/05/10 06:54:19;;;;;;;7.72;6.15;;;;;;;13.98;100.00;101024.16;10332723;28;20041;-84
2023/05/10 06:59:21;;;;;;;9.38;7.00;;;;;;;13.87;100.00;101028.34;10316079;28;20474;-82
2023/05/10 07:04:22;;;;;;;9.45;7.50;;;;;;;13.73;100.00;101026.75;10332932;28;20042;-83
2023/05/10 07:09:24;;;;;;;6.63;5.85;;;;;;;13.65;100.00;101035.97;10331983;28;20034;-83
2023/05/10 07:14:24;;;;;;;11.50;7.88;;;;;;;13.85;100.00;101035.94;10332469;28;20363;-84
2023/05/10 07:19:25;;;;;;;8.45;6.63;;;;;;;14.00;100.00;101038.34;10322681;28;20034;-84
2023/05/10 07:24:26;;;;;;;8.65;6.10;;;;;;;13.94;100.00;101050.97;10320746;28;20129;-83
2023/05/10 07:29:27;;;;;;;11.32;7.45;;;;;;;14.09;100.00;101053.41;10336440;28;20100;-84
2023/05/10 07:34:28;;;;;;;6.28;5.32;;;;;;;14.06;100.00;101053.00;10322442;28;20036;-84
2023/05/10 07:39:28;;;;;;;7.60;5.70;;;;;;;14.00;100.00;101057.41;10322190;28;20130;-84
2023/05/10 07:44:29;;;;;;;6.65;5.80;;;;;;;13.96;100.00;101053.47;10338951;28;20052;-84
2023/05/10 07:49:31;;;;;;;7.57;6.80;;;;;;;14.01;100.00;101055.53;10339773;28;20042;-83
2023/05/10 07:54:33;;;;;;;8.32;7.20;;;;;;;14.08;100.00;101062.63;10332633;28;20064;-84
2023/05/10 07:59:36;;;;;;;7.38;5.53;;;;;;;14.08;100.00;101056.34;10338589;28;20448;-83
2023/05/10 08:04:36;;;;;;;10.15;5.88;;;;;;;14.25;100.00;101062.13;10338165;28;20039;-83
2023/05/10 08:09:37;;;;;;;7.95;6.57;;;;;;;14.57;100.00;101068.47;10325050;28;20039;-83
2023/05/10 08:14:38;;;;;;;5.97;5.05;;;;;;;14.58;100.00;101070.13;10327363;28;20177;-83
2023/05/10 08:19:39;;;;;;;8.85;5.25;;;;;;;14.61;100.00;101077.84;10350838;28;20027;-83
2023/05/10 08:24:41;;;;;;;6.38;4.85;;;;;;;14.68;100.00;101083.25;10381873;28;20136;-83
2023/05/10 08:29:42;;;;;;;4.80;4.25;;;;;;;14.99;100.00;101083.22;10363103;28;20394;-83
2023/05/10 08:34:42;;;;;;;5.95;4.15;;;;;;;15.08;100.00;101087.34;10348084;28;20080;-82
2023/05/10 08:39:43;;;;;;;6.60;4.88;;;;;;;15.82;100.00;101090.22;10378494;28;20033;-83
2023/05/10 08:44:43;;;;;;;5.03;4.53;;;;;;;15.58;100.00;101095.50;10344939;28;20038;-83
2023/05/10 08:49:44;;;;;;;4.22;3.70;;;;;;;15.45;100.00;101112.00;10344599;28;20140;-82
2023/05/10 08:54:44;;;;;;;4.32;3.92;;;;;;;15.29;100.00;101118.03;10344432;28;20125;-83
2023/05/10 08:59:45;;;;;;;9.65;5.82;;;;;;;14.86;100.00;101132.41;10352533;28;20037;-83
2023/05/10 09:04:46;;;;;;;5.38;4.72;;;;;;;14.56;100.00;101133.03;10344054;28;20042;-82
2023/05/10 09:09:47;;;;;;;5.47;4.97;;;;;;;14.58;100.00;101139.09;10360572;28;20083;-82
2023/05/10 09:14:47;;;;;;;6.13;5.43;;;;;;;14.57;100.00;101140.13;10326189;28;20359;-83
2023/05/10 09:19:48;;;;;;;6.88;6.03;;;;;;;14.68;100.00;101143.22;10375975;28;20030;-83
2023/05/10 09:25:02;;;;;;;9.82;6.88;;;;;;;14.86;100.00;101148.78;10317219;28;20085;-82
2023/05/10 09:30:04;;;;;;;12.50;5.88;;;;;;;15.00;100.00;101149.53;10308284;28;20049;-83
2023/05/10 09:35:08;;;;;;;9.68;5.82;;;;;;;15.31;100.00;101154.09;10307425;28;20405;-82
2023/05/10 09:40:16;;;;;;;7.93;5.78;;;;;;;15.74;100.00;101153.34;10317704;28;20042;-83
2023/05/10 09:45:18;;;;;;;9.80;5.55;;;;;;;16.20;100.00;101157.44;10333775;28;20473;-83
2023/05/10 09:50:20;;;;;;;22.83;8.30;;;;;;;16.33;100.00;101165.47;10332618;28;20070;-83
2023/05/10 09:55:22;;;;;;;12.63;6.22;;;;;;;16.02;100.00;101167.31;10334294;28;20065;-82
2023/05/10 10:00:22;;;;;;;6.30;5.28;;;;;;;15.48;100.00;101174.34;10316782;28;20533;-82
2023/05/10 10:05:35;;;;;;;9.07;5.57;;;;;;;15.40;100.00;101174.59;10309374;28;20104;-81
2023/05/10 10:10:35;;;;;;;7.28;5.80;;;;;;;15.49;100.00;101183.34;10334644;28;20037;-82
2023/05/10 10:15:36;;;;;;;8.20;6.47;;;;;;;15.38;100.00;101198.56;10332200;28;20505;-82
2023/05/10 10:20:37;;;;;;;9.43;6.03;;;;;;;15.07;100.00;101193.97;10322600;28;20046;-81
2023/05/10 10:25:37;;;;;;;6.90;6.20;;;;;;;14.76;100.00;101198.34;10340340;28;20038;-82
2023/05/10 10:30:48;;;;;;;9.90;5.10;;;;;;;14.50;100.00;101198.44;10341183;28;20041;-81
2023/05/10 10:35:48;;;;;;;8.15;4.25;;;;;;;14.57;100.00;101200.09;10339923;28;20121;-81
2023/05/10 10:40:50;;;;;;;7.57;4.78;;;;;;;14.65;100.00;101199.88;10340921;28;20034;-82
2023/05/10 10:46:13;;;;;;;5.13;4.72;;;;;;;14.81;100.00;101193.06;10323853;28;20366;-81
2023/05/10 10:51:14;;;;;;;6.00;5.45;;;;;;;15.02;100.00;101199.22;10373358;28;20160;-81
2023/05/10 10:56:15;;;;;;;7.78;6.38;;;;;;;15.43;100.00;101204.19;10324025;28;20040;-81
2023/05/10 11:01:18;;;;;;;5.93;5.03;;;;;;;15.64;100.00;101199.41;10340194;28;20058;-82
2023/05/10 11:06:33;;;;;;;7.57;5.15;;;;;;;15.52;100.00;101211.03;10353001;28;20084;-81
2023/05/10 11:11:34;;;;;;;10.32;6.78;;;;;;;15.51;100.00;101203.91;10365847;28;20084;-82
2023/05/10 11:16:44;;;;;;;7.90;5.47;;;;;;;15.78;100.00;101215.47;10363018;28;20133;-81
2023/05/10 11:22:12;;;;;;;6.72;5.53;;;;;;;16.00;100.00;101212.31;10347432;28;20473;-81
2023/05/10 11:27:13;;;;;;;8.02;5.75;;;;;;;16.10;100.00;101212.63;10380454;28;20041;-81
2023/05/10 11:32:14;;;;;;;7.53;5.50;;;;;;;16.33;100.00;101206.47;10331341;28;20065;-81
2023/05/10 11:37:15;;;;;;;5.68;4.65;;;;;;;17.09;100.00;101216.03;10350553;28;20026;-81
2023/05/10 11:42:15;;;;;;;12.63;5.70;;;;;;;17.56;100.00;101207.91;10350628;28;20470;-81
2023/05/10 11:47:16;;;;;;;7.40;6.25;;;;;;;17.69;100.00;101220.56;10362138;28;20488;-81
2023/05/10 11:52:17;;;;;;;10.20;5.03;;;;;;;17.56;100.00;101220.78;10329236;28;20057;-81
2023/05/10 11:57:21;;;;;;;9.07;6.47;;;;;;;17.36;100.00;101212.91;10329069;28;20030;-81
2023/05/10 12:02:21;;;;;;;6.55;5.13;;;;;;;17.28;100.00;101216.78;10361374;28;20074;-81
2023/05/10 12:07:22;;;;;;;13.23;6.05;;;;;;;16.80;100.00;101225.06;10380028;28;20109;-81
2023/05/10 12:12:22;;;;;;;14.95;6.40;;;;;;;16.66;100.00;101227.13;10335379;28;20053;-81
2023/05/10 12:17:27;;;;;;;9.68;5.85;;;;;;;16.88;100.00;101231.06;10360913;28;20113;-81
2023/05/10 12:22:27;;;;;;;8.73;5.47;;;;;;;16.70;100.00;101234.63;10344720;28;20050;-81
2023/05/10 12:27:31;;;;;;;5.60;5.15;;;;;;;16.56;100.00;101235.00;10376823;28;20393;-82
2023/05/10 12:32:41;;;;;;;8.60;6.68;;;;;;;16.58;100.00;101231.00;10344185;28;20033;-81
2023/05/10 12:37:43;;;;;;;14.43;7.72;;;;;;;17.02;100.00;101239.91;10344161;28;20483;-81
2023/05/10 12:42:46;;;;;;;6.70;5.10;;;;;;;17.67;100.00;101236.38;10359353;28;20029;-81
2023/05/10 12:47:46;;;;;;;6.28;5.32;;;;;;;17.76;100.00;101251.41;10359950;28;20136;-80
2023/05/10 12:52:48;;;;;;;5.57;5.07;;;;;;;17.56;100.00;101242.69;10360435;28;20049;-81
2023/05/10 12:57:49;;;;;;;5.53;5.00;;;;;;;17.48;100.00;101246.59;10344087;28;20121;-81
2023/05/10 13:02:49;;;;;;;7.45;4.95;;;;;;;17.62;100.00;101247.22;10359185;28;20359;-81
2023/05/10 13:07:49;;;;;;;6.63;4.65;;;;;;;17.78;100.00;101260.25;10328212;28;20034;-81
2023/05/10 13:12:50;;;;;;;11.40;4.18;;;;;;;17.68;100.00;101262.72;10346339;28;20030;-82
2023/05/10 13:17:50;;;;;;;6.20;5.60;;;;;;;17.40;100.00;101258.72;10360537;28;20026;-81
2023/05/10 13:22:51;;;;;;;4.03;3.70;;;;;;;17.24;100.00;101264.03;10360271;28;20054;-81
2023/05/10 13:27:51;;;;;;;4.80;4.20;;;;;;;16.93;100.00;101272.22;10357429;28;20127;-82
2023/05/10 13:32:52;;;;;;;5.28;4.70;;;;;;;16.76;100.00;101264.91;10358771;28;20034;-81
2023/05/10 13:37:53;;;;;;;10.18;3.67;;;;;;;16.53;100.00;101271.88;10357814;28;20160;-81
2023/05/10 13:42:53;;;;;;;5.38;3.78;;;;;;;16.51;100.00;101273.97;10344238;28;20062;-81
2023/05/10 13:47:54;;;;;;;8.00;4.78;;;;;;;16.39;100.00;101273.06;10358545;28;20034;-81
2023/05/10 13:52:55;;;;;;;7.32;4.47;;;;;;;16.08;100.00;101274.00;10358072;28;20048;-81
2023/05/10 13:57:55;;;;;;;7.60;4.32;;;;;;;16.15;100.00;101275.63;10357893;28;20030;-81
2023/05/10 14:02:56;;;;;;;6.80;5.10;;;;;;;16.41;100.00;101279.16;10358244;28;20050;-81
2023/05/10 14:07:57;;;;;;;6.97;5.50;;;;;;;16.57;100.00;101277.72;10341193;28;20072;-81
2023/05/10 14:12:57;;;;;;;8.20;5.25;;;;;;;16.58;100.00;101279.38;10375185;28;20038;-81
2023/05/10 14:17:58;;;;;;;6.43;4.05;;;;;;;16.59;100.00;101276.44;10375649;28;20061;-80
2023/05/10 14:22:58;;;;;;;5.50;4.25;;;;;;;16.60;100.00;101275.34;10356426;28;20080;-81
2023/05/10 14:27:59;;;;;;;7.18;3.38;;;;;;;16.93;100.00;101274.97;10357651;28;20038;-81
2023/05/10 14:33:01;;;;;;;5.75;4.13;;;;;;;17.67;100.00;101263.78;10357783;28;20496;-81
2023/05/10 14:38:03;;;;;;;3.58;3.30;;;;;;;18.27;100.00;101262.75;10362239;28;20038;-81
2023/05/10 14:43:04;;;;;;;4.10;3.67;;;;;;;18.28;100.00;101261.66;10366866;28;20474;-81
2023/05/10 14:48:04;;;;;;;4.28;3.00;;;;;;;18.14;100.00;101266.56;10383500;28;20120;-81
2023/05/10 14:53:05;;;;;;;3.90;3.60;;;;;;;18.25;100.00;101270.38;10366236;28;20082;-81
2023/05/10 14:58:06;;;;;;;2.83;2.47;;;;;;;18.16;100.00;101269.09;10365189;28;20026;-81
2023/05/10 15:03:06;;;;;;;3.05;2.85;;;;;;;17.88;100.00;101259.66;10366295;28;20405;-81
2023/05/10 15:08:07;;;;;;;13.02;2.65;;;;;;;17.66;100.00;101256.63;10365385;28;20042;-81
2023/05/10 15:13:07;;;;;;;2.67;2.47;;;;;;;17.36;100.00;101254.78;10332828;28;20378;-81
2023/05/10 15:18:11;;;;;;;3.22;2.88;;;;;;;17.37;100.00;101261.94;10365117;28;20168;-81
2023/05/10 15:23:14;;;;;;;2.38;2.17;;;;;;;17.44;100.00;101270.88;10341425;28;20082;-81
2023/05/10 15:28:14;;;;;;;3.08;2.80;;;;;;;17.49;100.00;101269.34;10342072;28;20080;-82
2023/05/10 15:33:15;;;;;;;3.08;2.80;;;;;;;17.67;100.00;101274.72;10307257;28;20089;-81
2023/05/10 15:38:17;;;;;;;3.58;3.05;;;;;;;17.66;100.00;101275.81;10337880;28;20046;-81
2023/05/10 15:43:17;;;;;;;4.70;4.05;;;;;;;17.79;100.00;101286.56;10339997;28;20034;-81
2023/05/10 15:48:18;;;;;;;3.90;3.58;;;;;;;17.85;100.00;101287.53;10343703;28;20121;-81
2023/05/10 15:53:18;;;;;;;5.07;3.38;;;;;;;18.00;100.00;101300.78;10338204;28;20034;-81
2023/05/10 15:58:19;;;;;;;5.40;2.97;;;;;;;17.96;100.00;101305.06;10337013;28;20042;-81
2023/05/10 16:03:20;;;;;;;3.13;2.90;;;;;;;17.83;100.00;101312.41;10337853;28;20114;-81
2023/05/10 16:08:20;;;;;;;5.63;2.78;;;;;;;17.91;100.00;101307.69;10338918;28;20062;-80
2023/05/10 16:13:21;;;;;;;4.10;3.13;;;;;;;17.72;100.00;101317.84;10321849;28;20042;-81
2023/05/10 16:18:21;;;;;;;5.22;3.33;;;;;;;17.40;100.00;101312.66;10343573;28;20362;-79
2023/05/10 16:23:22;;;;;;;4.68;4.28;;;;;;;17.29;100.00;101327.94;10339258;28;20058;-81
2023/05/10 16:28:22;;;;;;;5.20;4.70;;;;;;;17.01;100.00;101324.97;10319733;28;20390;-80
2023/05/10 16:33:23;;;;;;;8.13;5.32;;;;;;;16.70;100.00;101327.59;10336219;28;20529;-80
2023/05/10 16:38:25;;;;;;;11.07;6.15;;;;;;;16.38;100.00;101334.25;10319714;28;20493;-81
2023/05/10 16:43:26;;;;;;;6.43;5.63;;;;;;;16.15;100.00;101340.38;10321393;28;20041;-81
2023/05/10 16:48:28;;;;;;;7.88;6.13;;;;;;;15.97;100.00;101341.16;10303845;28;20117;-80
2023/05/10 16:53:30;;;;;;;6.90;6.20;;;;;;;15.78;100.00;101346.53;10337368;28;20041;-81
2023/05/10 16:58:31;;;;;;;7.93;5.25;;;;;;;15.55;100.00;101343.50;10320338;28;20031;-81
2023/05/10 17:03:31;;;;;;;10.35;7.00;;;;;;;15.31;100.00;101345.09;10335543;28;20049;-80
2023/05/10 17:08:33;;;;;;;7.20;6.25;;;;;;;15.14;100.00;101343.94;10319776;28;20045;-80
2023/05/10 17:13:34;;;;;;;8.95;7.18;;;;;;;14.97;100.00;101349.91;10335399;28;20050;-81
2023/05/10 17:18:35;;;;;;;10.40;6.82;;;;;;;14.98;100.00;101348.84;10342248;28;20042;-80
2023/05/10 17:23:35;;;;;;;11.80;6.60;;;;;;;14.89;100.00;101348.22;10343757;28;20146;-80
2023/05/10 17:28:36;;;;;;;7.05;5.68;;;;;;;14.73;100.00;101345.16;10334476;28;20466;-81
2023/05/10 17:33:37;;;;;;;7.80;5.50;;;;;;;14.63;100.00;101349.16;10333840;28;20038;-81
2023/05/10 17:38:37;;;;;;;6.85;6.05;;;;;;;14.64;100.00;101356.28;10333922;28;20350;-80
2023/05/10 17:43:38;;;;;;;8.32;6.72;;;;;;;14.61;100.00;101348.53;10337582;28;20045;-80
2023/05/10 17:48:38;;;;;;;13.35;7.03;;;;;;;14.56;100.00;101351.06;10333708;28;20037;-80
2023/05/10 17:53:39;;;;;;;7.35;6.53;;;;;;;14.49;100.00;101352.09;10324311;28;20037;-81
2023/05/10 17:58:40;;;;;;;8.23;5.03;;;;;;;14.43;100.00;101351.06;10317722;28;20385;-80
2023/05/10 18:03:41;;;;;;;4.40;3.97;;;;;;;14.36;100.00;101361.13;10301751;28;20038;-81
2023/05/10 18:08:41;;;;;;;7.80;3.83;;;;;;;14.26;100.00;101355.25;10317042;28;20034;-81
2023/05/10 18:13:41;;;;;;;7.80;4.40;;;;;;;14.18;100.00;101359.88;10316813;28;20062;-80
2023/05/10 18:18:42;;;;;;;5.20;4.07;;;;;;;14.18;100.00;101362.59;10333696;28;20141;-79
2023/05/10 18:23:42;;;;;;;5.85;4.57;;;;;;;14.06;100.00;101358.81;10366373;28;20058;-80
2023/05/10 18:28:43;;;;;;;4.40;3.17;;;;;;;14.06;100.00;101368.88;10362339;28;20045;-80
2023/05/10 18:33:44;;;;;;;4.20;2.95;;;;;;;14.01;100.00;101364.06;10355843;28;20045;-80
2023/05/10 18:38:44;;;;;;;3.45;3.15;;;;;;;13.97;100.00;101376.41;10324188;28;20069;-81
2023/05/10 18:43:45;;;;;;;4.40;3.90;;;;;;;13.94;100.00;101368.66;10357190;28;20045;-82
2023/05/10 18:48:45;;;;;;;8.88;4.15;;;;;;;13.87;100.00;101375.97;10355909;28;20030;-83
2023/05/10 18:53:46;;;;;;;4.35;3.13;;;;;;;13.77;100.00;101381.84;10356805;28;20057;-81
2023/05/10 18:58:46;;;;;;;6.63;3.47;;;;;;;13.66;100.00;101383.28;10343090;28;20026;-79
2023/05/10 19:03:47;;;;;;;5.03;3.42;;;;;;;13.59;100.00;101389.75;10355671;28;20125;-85
2023/05/10 19:08:47;;;;;;;3.83;3.53;;;;;;;13.52;100.00;101391.63;10339725;28;20041;-83
2023/05/10 19:13:48;;;;;;;3.88;3.47;;;;;;;13.45;100.00;101400.59;10356282;28;20046;-82
2023/05/10 19:18:48;;;;;;;3.78;3.38;;;;;;;13.41;100.00;101403.94;10373439;28;20125;-81
2023/05/10 19:23:48;;;;;;;3.58;3.28;;;;;;;13.33;100.00;101412.25;10333143;28;20462;-83
2023/05/10 19:28:50;;;;;;;4.40;3.30;;;;;;;13.23;100.00;101408.00;10343996;28;20121;-81
2023/05/10 19:33:51;;;;;;;3.60;3.15;;;;;;;13.17;100.00;101413.41;10354497;28;20332;-82
2023/05/10 19:38:52;;;;;;;12.02;3.45;;;;;;;13.11;100.00;101425.94;10338666;28;20485;-79
2023/05/10 19:43:52;;;;;;;5.82;4.00;;;;;;;13.08;100.00;101426.38;10338903;28;20049;-80
2023/05/10 19:48:53;;;;;;;5.05;3.22;;;;;;;13.03;100.00;101423.41;10323367;28;20033;-81
2023/05/10 19:53:53;;;;;;;3.70;3.13;;;;;;;12.96;100.00;101428.81;10338870;28;20529;-82
2023/05/10 19:58:54;;;;;;;5.78;3.60;;;;;;;12.92;100.00;101432.97;10306258;28;20125;-83
2023/05/10 20:03:55;;;;;;;6.22;3.40;;;;;;;12.87;100.00;101437.31;10344194;28;20457;-83
2023/05/10 20:08:56;;;;;;;3.58;2.67;;;;;;;12.80;100.00;101432.69;10337947;28;20516;-80
2023/05/10 20:13:56;;;;;;;4.55;3.67;;;;;;;12.76;100.00;101428.69;10337581;28;20043;-83
2023/05/10 20:18:56;;;;;;;3.22;3.00;;;;;;;12.72;100.00;101435.53;10338563;28;20474;-81
2023/05/10 20:23:58;;;;;;;4.88;3.45;;;;;;;12.69;100.00;101437.81;10337351;28;20443;-84
2023/05/10 20:28:59;;;;;;;3.75;3.45;;;;;;;12.65;100.00;101442.81;10321287;28;20117;-82
2023/05/10 20:33:59;;;;;;;3.47;3.03;;;;;;;12.65;100.00;101441.97;10343200;28;20066;-83
2023/05/10 20:39:00;;;;;;;4.03;3.63;;;;;;;12.61;100.00;101444.25;10335825;28;20486;-81
2023/05/10 20:44:00;;;;;;;3.85;3.55;;;;;;;12.59;100.00;101445.47;10338879;28;20049;-83
2023/05/10 20:49:01;;;;;;;3.92;3.58;;;;;;;12.55;100.00;101445.03;10336884;28;20081;-84
2023/05/10 20:54:03;;;;;;;4.32;3.92;;;;;;;12.55;100.00;101443.16;10338342;28;20487;-84
2023/05/10 20:59:03;;;;;;;6.18;4.40;;;;;;;12.51;100.00;101444.59;10340725;28;20034;-81
2023/05/10 21:04:04;;;;;;;5.28;4.78;;;;;;;12.52;100.00;101453.59;10336169;28;20030;-82
2023/05/10 21:09:06;;;;;;;5.65;4.38;;;;;;;12.51;100.00;101441.03;10303643;28;20069;-80
2023/05/10 21:14:07;;;;;;;5.63;4.47;;;;;;;12.50;100.00;101447.50;10318915;28;20157;-84
2023/05/10 21:19:07;;;;;;;4.70;3.88;;;;;;;12.51;100.00;101443.75;10336076;28;20109;-84
2023/05/10 21:24:08;;;;;;;5.00;4.05;;;;;;;12.49;100.00;101449.38;10318766;28;20089;-84
2023/05/10 21:29:10;;;;;;;4.95;4.45;;;;;;;12.47;100.00;101440.56;10333849;28;20053;-84
2023/05/10 21:34:12;;;;;;;7.03;4.80;;;;;;;12.43;100.00;101443.88;10334500;28;20039;-85
2023/05/10 21:39:13;;;;;;;5.70;4.72;;;;;;;12.37;100.00;101433.81;10327506;28;20377;-82
2023/05/10 21:44:13;;;;;;;8.25;6.00;;;;;;;12.28;100.00;101431.25;10326684;28;20085;-81
2023/05/10 21:49:14;;;;;;;11.63;7.07;;;;;;;12.23;100.00;101443.72;10306940;28;20038;-82
2023/05/10 21:54:14;;;;;;;14.43;6.38;;;;;;;12.12;100.00;101428.78;10337540;28;20077;-82
2023/05/10 21:59:15;;;;;;;8.93;7.15;;;;;;;12.07;100.00;101431.25;10337761;28;20093;-82
2023/05/10 22:04:15;;;;;;;8.23;7.00;;;;;;;11.98;100.00;101435.13;10339744;28;20041;-81
2023/05/10 22:09:17;;;;;;;9.35;6.15;;;;;;;11.95;100.00;101436.34;10325508;28;20363;-82
2023/05/10 22:14:18;;;;;;;11.27;6.78;;;;;;;11.91;100.00;101440.50;10326312;28;20045;-81
2023/05/10 22:19:18;;;;;;;8.27;6.80;;;;;;;11.86;100.00;101454.63;10334941;28;20496;-82
2023/05/10 22:24:20;;;;;;;9.18;8.27;;;;;;;11.86;100.00;101441.06;10334999;28;20050;-82
2023/05/10 22:29:21;;;;;;;12.57;8.68;;;;;;;11.90;100.00;101444.25;10337415;28;20132;-80
2023/05/10 22:34:22;;;;;;;12.23;7.55;;;;;;;11.94;100.00;101433.84;10336827;28;20398;-80
2023/05/10 22:39:22;;;;;;;13.80;7.90;;;;;;;11.99;100.00;101442.22;10303926;28;20045;-83
2023/05/10 22:44:23;;;;;;;15.63;8.65;;;;;;;12.00;100.00;101433.91;10312085;28;20041;-83